createdAt,value
2023-03-20T00:01:17.248Z,98025.81
2023-03-20T00:03:44.206Z,98026.00
2023-03-20T00:06:20.133Z,98023.81
2023-03-20T00:08:48.018Z,98024.75
2023-03-20T00:11:29.119Z,98021.47
2023-03-20T00:14:10.059Z,98019.87
2023-03-20T00:16:39.130Z,98027.63
2023-03-20T00:19:07.054Z,98027.56
2023-03-20T00:21:34.507Z,98028.28
2023-03-20T00:24:02.112Z,98025.84
2023-03-20T00:26:33.620Z,98027.31
2023-03-20T00:29:01.864Z,98030.12
2023-03-20T00:31:34.134Z,98030.03
2023-03-20T00:34:03.832Z,98027.87
2023-03-20T00:36:30.789Z,98022.41
2023-03-20T00:38:58.227Z,98019.72
2023-03-20T00:41:32.288Z,98016.41
2023-03-20T00:44:02.484Z,98016.72
2023-03-20T00:46:32.610Z,98017.63
2023-03-20T00:48:59.484Z,98023.03
2023-03-20T00:51:26.133Z,98021.66
2023-03-20T00:53:53.059Z,98011.69
2023-03-20T00:56:39.603Z,98005.81
2023-03-20T00:59:07.422Z,98005.31
2023-03-20T01:01:34.291Z,98012.56
2023-03-20T01:04:01.183Z,98008.09
2023-03-20T01:06:29.073Z,98013.53
2023-03-20T01:08:57.859Z,98011.22
2023-03-20T01:11:24.946Z,98013.97
2023-03-20T01:13:52.520Z,98020.00
2023-03-20T01:16:27.290Z,98011.66
2023-03-20T01:18:54.390Z,98005.59
2023-03-20T01:21:21.764Z,97999.38
2023-03-20T01:23:49.746Z,98011.66
2023-03-20T01:26:25.337Z,98011.69
2023-03-20T01:28:52.319Z,98007.53
2023-03-20T01:31:19.888Z,98014.72
2023-03-20T01:33:46.929Z,98004.69
2023-03-20T01:36:16.041Z,98016.59
2023-03-20T01:38:43.162Z,98009.97
2023-03-20T01:41:14.330Z,98010.53
2023-03-20T01:43:41.398Z,98011.94
2023-03-20T01:46:25.223Z,98009.06
2023-03-20T01:49:00.869Z,98006.00
2023-03-20T01:51:29.876Z,98005.25
2023-03-20T01:54:01.236Z,98006.44
2023-03-20T01:56:31.135Z,98007.34
2023-03-20T01:59:01.899Z,98000.66
2023-03-20T02:01:29.428Z,98001.16
2023-03-20T02:03:57.565Z,98000.28
2023-03-20T02:06:25.534Z,98005.44
2023-03-20T02:08:53.630Z,98011.16
2023-03-20T02:11:25.447Z,98011.72
2023-03-20T02:13:53.727Z,98009.94
2023-03-20T02:16:21.184Z,98009.47
2023-03-20T02:18:50.090Z,98009.44
2023-03-20T02:21:28.835Z,98010.69
2023-03-20T02:24:15.572Z,97999.88
2023-03-20T02:26:47.269Z,98000.78
2023-03-20T02:29:35.918Z,98000.44
2023-03-20T02:32:11.872Z,98011.59
2023-03-20T02:35:17.609Z,98010.09
2023-03-20T02:37:50.138Z,98010.88
2023-03-20T02:40:39.090Z,98009.06
2023-03-20T02:43:18.946Z,98004.84
2023-03-20T02:45:50.572Z,98011.19
2023-03-20T02:48:33.261Z,98009.72
2023-03-20T02:51:20.818Z,98011.34
2023-03-20T02:54:22.592Z,98008.53
2023-03-20T02:57:12.756Z,98000.47
2023-03-20T02:59:46.837Z,98000.66
2023-03-20T03:02:17.456Z,98012.37
2023-03-20T03:04:54.153Z,98009.09
2023-03-20T03:07:23.860Z,98007.41
2023-03-20T03:10:24.358Z,98013.66
2023-03-20T03:12:52.685Z,98008.59
2023-03-20T03:15:33.221Z,98002.47
2023-03-20T03:18:01.596Z,98007.84
2023-03-20T03:20:32.652Z,98011.50
2023-03-20T03:22:59.942Z,98013.72
2023-03-20T03:25:29.877Z,98019.81
2023-03-20T03:28:32.720Z,98015.25
2023-03-20T03:31:00.686Z,98010.34
2023-03-20T03:33:32.153Z,98018.09
2023-03-20T03:36:11.920Z,98014.22
2023-03-20T03:38:45.897Z,98024.91
2023-03-20T03:41:34.196Z,98010.16
2023-03-20T03:44:08.997Z,98006.84
2023-03-20T03:46:45.110Z,98019.56
2023-03-20T03:49:16.442Z,98014.56
2023-03-20T03:51:45.625Z,98015.41
2023-03-20T03:54:30.729Z,98023.53
2023-03-20T03:56:58.137Z,98025.41
2023-03-20T03:59:35.651Z,98020.53
2023-03-20T04:02:03.846Z,98028.50
2023-03-20T04:04:32.587Z,98027.44
2023-03-20T04:06:59.522Z,98028.69
2023-03-20T04:09:26.379Z,98029.78
2023-03-20T04:11:53.406Z,98031.78
2023-03-20T04:14:20.745Z,98022.41
2023-03-20T04:16:47.759Z,98026.31
2023-03-20T04:19:14.658Z,98025.03
2023-03-20T04:21:41.534Z,98029.69
2023-03-20T04:24:08.244Z,98017.84
2023-03-20T04:26:35.160Z,98025.31
2023-03-20T04:29:02.046Z,98028.84
2023-03-20T04:31:28.827Z,98021.38
2023-03-20T04:33:55.699Z,98021.41
2023-03-20T04:36:22.977Z,98030.03
2023-03-20T04:38:50.011Z,98030.50
2023-03-20T04:41:16.916Z,98034.03
2023-03-20T04:43:43.777Z,98040.75
2023-03-20T04:46:10.687Z,98034.09
2023-03-20T04:48:37.635Z,98037.81
2023-03-20T04:51:04.372Z,98043.69
2023-03-20T04:53:31.284Z,98046.38
2023-03-20T04:56:00.604Z,98043.16
2023-03-20T04:58:28.683Z,98054.75
2023-03-20T05:00:55.769Z,98047.16
2023-03-20T05:03:24.129Z,98053.59
2023-03-20T05:05:51.235Z,98061.69
2023-03-20T05:08:18.111Z,98069.62
2023-03-20T05:10:44.798Z,98073.34
2023-03-20T05:13:11.727Z,98074.50
2023-03-20T05:15:38.567Z,98080.09
2023-03-20T05:18:05.267Z,98076.56
2023-03-20T05:20:32.603Z,98081.16
2023-03-20T05:22:59.506Z,98073.59
2023-03-20T05:25:26.342Z,98083.00
2023-03-20T05:27:53.055Z,98084.03
2023-03-20T05:30:19.998Z,98076.72
2023-03-20T05:32:50.188Z,98078.63
2023-03-20T05:35:17.212Z,98085.00
2023-03-20T05:37:44.088Z,98083.62
2023-03-20T05:40:14.549Z,98090.97
2023-03-20T05:42:41.620Z,98092.50
2023-03-20T05:45:09.282Z,98093.03
2023-03-20T05:47:36.369Z,98099.81
2023-03-20T05:50:04.215Z,98097.88
2023-03-20T05:52:31.311Z,98098.41
2023-03-20T05:54:58.141Z,98092.16
2023-03-20T05:57:24.834Z,98094.38
2023-03-20T05:59:51.706Z,98094.09
2023-03-20T06:02:18.494Z,98100.63
2023-03-20T06:04:45.413Z,98095.25
2023-03-20T06:07:12.411Z,98094.69
2023-03-20T06:09:39.277Z,98107.53
2023-03-20T06:12:06.927Z,98102.41
2023-03-20T06:14:33.837Z,98099.62
2023-03-20T06:17:01.069Z,98104.16
2023-03-20T06:19:27.961Z,98104.56
2023-03-20T06:21:54.840Z,98108.25
2023-03-20T06:24:21.797Z,98112.41
2023-03-20T06:26:48.689Z,98101.03
2023-03-20T06:29:15.770Z,98108.00
2023-03-20T06:31:42.711Z,98106.56
2023-03-20T06:34:09.606Z,98106.31
2023-03-20T06:36:36.713Z,98105.09
2023-03-20T06:39:22.144Z,98108.06
2023-03-20T06:41:49.052Z,98116.63
2023-03-20T06:44:16.082Z,98117.00
2023-03-20T06:46:43.083Z,98115.31
2023-03-20T06:49:10.013Z,98118.09
2023-03-20T06:51:37.353Z,98124.69
2023-03-20T06:54:04.329Z,98134.91
2023-03-20T06:56:32.466Z,98126.84
2023-03-20T06:58:59.415Z,98128.34
2023-03-20T07:01:26.391Z,98128.81
2023-03-20T07:03:53.651Z,98131.59
2023-03-20T07:06:20.727Z,98132.47
2023-03-20T07:08:47.712Z,98132.84
2023-03-20T07:11:14.593Z,98131.56
2023-03-20T07:13:41.881Z,98136.13
2023-03-20T07:16:09.122Z,98133.91
2023-03-20T07:18:36.188Z,98126.34
2023-03-20T07:21:05.404Z,98129.28
2023-03-20T07:23:34.641Z,98126.87
2023-03-20T07:26:01.794Z,98136.31
2023-03-20T07:28:28.784Z,98128.22
2023-03-20T07:30:55.914Z,98134.72
2023-03-20T07:33:22.826Z,98134.88
2023-03-20T07:35:54.008Z,98142.75
2023-03-20T07:38:39.742Z,98134.66
2023-03-20T07:41:06.953Z,98137.19
2023-03-20T07:43:34.232Z,98137.88
2023-03-20T07:46:05.789Z,98143.63
2023-03-20T07:48:32.800Z,98139.81
2023-03-20T07:50:59.769Z,98141.81
2023-03-20T07:53:27.857Z,98145.09
2023-03-20T07:55:54.685Z,98148.56
2023-03-20T07:58:21.978Z,98148.56
2023-03-20T08:00:48.942Z,98152.78
2023-03-20T08:03:15.964Z,98155.25
2023-03-20T08:05:45.880Z,98156.91
2023-03-20T08:08:15.009Z,98157.97
2023-03-20T08:10:42.061Z,98162.44
2023-03-20T08:13:08.965Z,98161.59
2023-03-20T08:15:36.076Z,98160.00
2023-03-20T08:18:03.124Z,98161.84
2023-03-20T08:20:31.208Z,98164.44
2023-03-20T08:22:58.269Z,98160.34
2023-03-20T08:25:25.143Z,98159.47
2023-03-20T08:27:52.031Z,98156.50
2023-03-20T08:30:19.148Z,98162.78
2023-03-20T08:32:46.131Z,98165.66
2023-03-20T08:35:29.743Z,98162.13
2023-03-20T08:37:59.317Z,98169.56
2023-03-20T08:40:26.182Z,98169.75
2023-03-20T08:42:53.072Z,98176.44
2023-03-20T08:45:20.049Z,98176.88
2023-03-20T08:47:50.412Z,98177.88
2023-03-20T08:50:17.695Z,98180.72
2023-03-20T08:52:44.626Z,98180.19
2023-03-20T08:55:12.156Z,98185.38
2023-03-20T08:57:39.265Z,98193.72
2023-03-20T09:00:07.942Z,98195.41
2023-03-20T09:02:34.906Z,98198.88
2023-03-20T09:05:02.070Z,98202.69
2023-03-20T09:07:28.971Z,98207.56
2023-03-20T09:09:55.824Z,98199.50
2023-03-20T09:12:22.987Z,98208.84
2023-03-20T09:14:49.900Z,98201.13
2023-03-20T09:17:17.009Z,98210.13
2023-03-20T09:19:44.906Z,98213.91
2023-03-20T09:22:15.809Z,98209.94
2023-03-20T09:24:42.666Z,98205.88
2023-03-20T09:27:15.460Z,98196.09
2023-03-20T09:29:43.627Z,98200.69
2023-03-20T09:32:14.951Z,98201.47
2023-03-20T09:34:42.200Z,98198.44
2023-03-20T09:37:09.351Z,98203.81
2023-03-20T09:39:36.522Z,98205.91
2023-03-20T09:42:26.158Z,98212.75
2023-03-20T09:45:11.612Z,98207.97
2023-03-20T09:47:50.673Z,98209.78
2023-03-20T09:50:24.641Z,98203.69
2023-03-20T09:53:07.303Z,98207.50
2023-03-20T09:55:37.035Z,98211.00
2023-03-20T09:58:21.335Z,98204.69
2023-03-20T10:00:48.565Z,98214.62
2023-03-20T10:03:25.406Z,98215.59
2023-03-20T10:06:00.531Z,98206.59
2023-03-20T10:08:31.060Z,98206.19
2023-03-20T10:11:07.491Z,98204.41
2023-03-20T10:13:49.615Z,98201.31
2023-03-20T10:16:54.337Z,98188.59
2023-03-20T10:19:29.153Z,98190.91
2023-03-20T10:22:25.357Z,98195.00
2023-03-20T10:25:01.616Z,98195.84
2023-03-20T10:27:41.415Z,98193.97
2023-03-20T10:30:29.454Z,98187.69
2023-03-20T10:33:08.499Z,98196.38
2023-03-20T10:35:50.233Z,98187.00
2023-03-20T10:38:32.245Z,98192.75
2023-03-20T10:40:59.827Z,98191.34
2023-03-20T10:43:38.807Z,98202.94
2023-03-20T10:46:20.105Z,98196.44
2023-03-20T10:48:51.241Z,98199.38
2023-03-20T10:51:20.622Z,98192.66
2023-03-20T10:53:56.654Z,98195.84
2023-03-20T10:56:36.398Z,98191.09
2023-03-20T10:59:24.699Z,98186.66
2023-03-20T11:01:51.606Z,98192.75
2023-03-20T11:04:19.168Z,98189.44
2023-03-20T11:06:55.194Z,98188.91
2023-03-20T11:09:24.165Z,98187.78
2023-03-20T11:11:55.597Z,98179.87
2023-03-20T11:14:26.409Z,98178.03
2023-03-20T11:16:55.284Z,98181.53
2023-03-20T11:19:24.141Z,98170.81
2023-03-20T11:21:58.478Z,98172.50
2023-03-20T11:24:28.188Z,98169.84
2023-03-20T11:26:56.087Z,98162.81
2023-03-20T11:29:35.353Z,98164.13
2023-03-20T11:32:07.338Z,98173.69
2023-03-20T11:34:38.304Z,98172.84
2023-03-20T11:37:10.757Z,98172.50
2023-03-20T11:39:40.307Z,98162.97
2023-03-20T11:42:25.611Z,98167.75
2023-03-20T11:45:04.361Z,98159.62
2023-03-20T11:47:35.337Z,98156.16
2023-03-20T11:50:05.077Z,98158.94
2023-03-20T11:52:37.676Z,98153.31
2023-03-20T11:55:08.681Z,98152.97
2023-03-20T11:57:39.938Z,98158.41
2023-03-20T12:00:22.262Z,98151.38
2023-03-20T12:02:49.700Z,98148.34
2023-03-20T12:05:33.239Z,98146.41
2023-03-20T12:08:16.402Z,98138.84
2023-03-20T12:10:47.189Z,98137.94
2023-03-20T12:13:18.382Z,98133.87
2023-03-20T12:15:48.515Z,98133.78
2023-03-20T12:18:36.847Z,98130.50
2023-03-20T12:21:18.537Z,98130.69
2023-03-20T12:24:02.678Z,98128.56
2023-03-20T12:26:33.137Z,98125.44
2023-03-20T12:29:03.022Z,98123.88
2023-03-20T12:31:36.140Z,98121.38
2023-03-20T12:34:16.203Z,98125.47
2023-03-20T12:36:45.033Z,98120.53
2023-03-20T12:39:28.440Z,98125.22
2023-03-20T12:42:18.722Z,98125.63
2023-03-20T12:45:13.908Z,98113.16
2023-03-20T12:47:58.418Z,98110.00
2023-03-20T12:50:42.634Z,98117.50
2023-03-20T12:53:09.471Z,98109.44
2023-03-20T12:55:43.780Z,98112.88
2023-03-20T12:58:25.872Z,98113.59
2023-03-20T13:00:59.452Z,98119.31
2023-03-20T13:03:47.949Z,98116.22
2023-03-20T13:06:36.101Z,98117.16
2023-03-20T13:09:36.376Z,98113.44
2023-03-20T13:12:21.570Z,98110.87
2023-03-20T13:15:07.022Z,98111.84
2023-03-20T13:17:42.610Z,98107.16
2023-03-20T13:20:32.494Z,98105.97
2023-03-20T13:23:20.789Z,98105.03
2023-03-20T13:26:14.403Z,98102.25
2023-03-20T13:29:07.408Z,98107.19
2023-03-20T13:31:58.186Z,98094.44
2023-03-20T13:34:54.229Z,98098.28
2023-03-20T13:37:36.178Z,98096.37
2023-03-20T13:40:24.498Z,98096.47
2023-03-20T13:43:16.033Z,98083.16
2023-03-20T13:45:43.912Z,98089.16
2023-03-20T13:48:16.950Z,98085.59
2023-03-20T13:50:52.064Z,98088.75
2023-03-20T13:53:30.893Z,98083.97
2023-03-20T13:56:14.486Z,98078.22
2023-03-20T13:59:19.019Z,98076.84
2023-03-20T14:02:01.470Z,98087.19
2023-03-20T14:04:29.312Z,98085.63
2023-03-20T14:06:58.326Z,98090.84
2023-03-20T14:09:28.143Z,98090.97
2023-03-20T14:11:57.196Z,98076.78
2023-03-20T14:14:43.921Z,98085.56
2023-03-20T14:17:30.929Z,98086.66
2023-03-20T14:19:58.596Z,98087.91
2023-03-20T14:22:34.369Z,98088.47
2023-03-20T14:25:09.375Z,98085.94
2023-03-20T14:27:53.285Z,98081.03
2023-03-20T14:30:32.551Z,98071.72
2023-03-20T14:33:15.538Z,98068.41
2023-03-20T14:36:11.324Z,98075.16
2023-03-20T14:39:00.428Z,98073.28
2023-03-20T14:41:31.256Z,98071.47
2023-03-20T14:44:39.157Z,98066.81
2023-03-20T14:47:21.564Z,98069.59
2023-03-20T14:50:06.208Z,98058.16
2023-03-20T14:52:48.331Z,98057.81
2023-03-20T14:55:18.152Z,98053.06
2023-03-20T14:57:56.037Z,98055.22
2023-03-20T15:00:25.922Z,98055.72
2023-03-20T15:03:14.116Z,98059.38
2023-03-20T15:05:43.103Z,98061.47
2023-03-20T15:08:14.751Z,98064.41
2023-03-20T15:10:48.234Z,98047.31
2023-03-20T15:13:16.108Z,98062.34
2023-03-20T15:16:13.321Z,98055.44
2023-03-20T15:18:46.034Z,98055.56
2023-03-20T15:21:18.377Z,98056.91
2023-03-20T15:23:46.600Z,98059.38
2023-03-20T15:26:18.464Z,98061.91
2023-03-20T15:28:46.484Z,98062.56
2023-03-20T15:31:26.050Z,98056.75
2023-03-20T15:33:53.029Z,98059.88
2023-03-20T15:36:23.208Z,98061.72
2023-03-20T15:38:50.139Z,98070.91
2023-03-20T15:41:28.656Z,98057.22
2023-03-20T15:44:04.377Z,98060.62
2023-03-20T15:46:31.513Z,98060.59
2023-03-20T15:49:00.464Z,98055.63
2023-03-20T15:51:28.002Z,98057.97
2023-03-20T15:53:55.071Z,98062.81
2023-03-20T15:56:25.397Z,98065.28
2023-03-20T15:58:52.713Z,98066.09
2023-03-20T16:01:21.929Z,98060.91
2023-03-20T16:03:49.274Z,98067.38
2023-03-20T16:06:18.863Z,98058.78
2023-03-20T16:08:47.056Z,98066.09
2023-03-20T16:11:17.083Z,98067.88
2023-03-20T16:13:46.882Z,98069.06
2023-03-20T16:16:16.369Z,98074.16
2023-03-20T16:18:43.827Z,98073.66
2023-03-20T16:21:17.837Z,98082.13
2023-03-20T16:23:46.467Z,98085.28
2023-03-20T16:26:17.667Z,98088.72
2023-03-20T16:28:50.097Z,98081.56
2023-03-20T16:31:19.364Z,98082.50
2023-03-20T16:33:47.794Z,98090.09
2023-03-20T16:36:21.137Z,98087.56
2023-03-20T16:39:08.810Z,98092.78
2023-03-20T16:41:36.564Z,98093.00
2023-03-20T16:44:19.850Z,98094.13
2023-03-20T16:47:11.246Z,98096.81
2023-03-20T16:50:17.655Z,98099.78
2023-03-20T16:52:52.766Z,98097.09
2023-03-20T16:55:32.576Z,98101.28
2023-03-20T16:58:04.614Z,98097.44
2023-03-20T17:00:33.963Z,98108.41
2023-03-20T17:03:49.614Z,98107.72
2023-03-20T17:06:19.880Z,98110.00
2023-03-20T17:08:49.200Z,98107.12
2023-03-20T17:11:47.904Z,98110.87
2023-03-20T17:14:14.844Z,98106.41
2023-03-20T17:16:41.988Z,98109.00
2023-03-20T17:19:16.590Z,98109.91
2023-03-20T17:21:44.915Z,98115.91
2023-03-20T17:24:12.703Z,98116.81
2023-03-20T17:26:41.136Z,98120.69
2023-03-20T17:29:08.318Z,98123.56
2023-03-20T17:31:35.200Z,98115.62
2023-03-20T17:34:02.088Z,98118.97
2023-03-20T17:36:31.729Z,98122.12
2023-03-20T17:38:59.715Z,98119.09
2023-03-20T17:41:27.458Z,98122.47
2023-03-20T17:43:56.330Z,98121.47
2023-03-20T17:46:26.863Z,98127.94
2023-03-20T17:48:59.459Z,98126.44
2023-03-20T17:51:26.360Z,98130.56
2023-03-20T17:53:58.038Z,98126.94
2023-03-20T17:56:30.268Z,98134.97
2023-03-20T17:58:57.805Z,98129.03
2023-03-20T18:01:25.196Z,98126.50
2023-03-20T18:03:52.332Z,98129.22
2023-03-20T18:06:39.399Z,98136.41
2023-03-20T18:09:06.599Z,98135.47
2023-03-20T18:11:33.562Z,98132.19
2023-03-20T18:14:02.170Z,98135.50
2023-03-20T18:16:29.068Z,98136.03
2023-03-20T18:18:55.984Z,98143.31
2023-03-20T18:21:22.854Z,98144.44
2023-03-20T18:23:49.750Z,98147.13
2023-03-20T18:26:18.050Z,98142.03
2023-03-20T18:28:44.943Z,98140.69
2023-03-20T18:31:13.502Z,98145.25
2023-03-20T18:33:42.488Z,98143.53
2023-03-20T18:36:14.684Z,98149.13
2023-03-20T18:38:41.617Z,98144.19
2023-03-20T18:41:08.940Z,98143.50
2023-03-20T18:43:36.339Z,98147.03
2023-03-20T18:46:03.259Z,98146.91
2023-03-20T18:48:33.353Z,98143.34
2023-03-20T18:51:03.238Z,98146.72
2023-03-20T18:53:30.335Z,98148.37
2023-03-20T18:55:57.422Z,98148.28
2023-03-20T18:58:26.711Z,98146.75
2023-03-20T19:00:55.997Z,98145.75
2023-03-20T19:03:24.636Z,98141.47
2023-03-20T19:05:52.636Z,98153.62
2023-03-20T19:08:19.863Z,98149.53
2023-03-20T19:10:47.300Z,98148.72
2023-03-20T19:13:21.657Z,98147.88
2023-03-20T19:15:48.623Z,98146.50
2023-03-20T19:18:20.576Z,98147.56
2023-03-20T19:20:49.440Z,98147.16
2023-03-20T19:23:18.078Z,98152.22
2023-03-20T19:25:47.157Z,98151.91
2023-03-20T19:28:39.267Z,98148.78
2023-03-20T19:31:09.293Z,98154.81
2023-03-20T19:33:37.164Z,98152.34
2023-03-20T19:36:04.848Z,98148.47
2023-03-20T19:38:32.739Z,98157.66
2023-03-20T19:41:01.802Z,98152.97
2023-03-20T19:43:29.377Z,98149.75
2023-03-20T19:45:59.019Z,98142.22
2023-03-20T19:48:46.165Z,98142.69
2023-03-20T19:51:24.037Z,98145.12
2023-03-20T19:53:51.289Z,98147.25
2023-03-20T19:56:19.765Z,98145.69
2023-03-20T19:58:47.581Z,98153.81
2023-03-20T20:01:25.368Z,98151.97
2023-03-20T20:03:57.584Z,98148.69
2023-03-20T20:06:30.921Z,98151.72
2023-03-20T20:08:59.174Z,98154.75
2023-03-20T20:11:26.266Z,98156.00
2023-03-20T20:14:10.008Z,98145.97
2023-03-20T20:16:39.930Z,98152.03
2023-03-20T20:19:07.270Z,98155.50
2023-03-20T20:24:21.807Z,98153.16
2023-03-20T20:26:55.019Z,98154.84
2023-03-20T20:29:24.932Z,98147.75
2023-03-20T20:31:52.045Z,98148.25
2023-03-20T20:37:56.524Z,98144.62
2023-03-20T20:39:53.827Z,98144.28
2023-03-20T20:42:20.856Z,98145.91
2023-03-20T20:44:47.907Z,98146.91
2023-03-20T20:47:15.048Z,98147.34
2023-03-20T20:49:41.981Z,98153.72
2023-03-20T20:52:09.780Z,98143.63
2023-03-20T20:54:36.774Z,98137.31
2023-03-20T20:57:04.017Z,98140.59
2023-03-20T20:59:30.990Z,98137.09
2023-03-20T21:01:57.912Z,98137.97
2023-03-20T21:04:24.821Z,98138.59
2023-03-20T21:07:09.323Z,98138.69
2023-03-20T21:09:37.445Z,98138.59
2023-03-20T21:12:04.999Z,98135.94
2023-03-20T21:14:32.130Z,98127.19
2023-03-20T21:17:02.051Z,98130.44
2023-03-20T21:19:42.315Z,98124.50
2023-03-20T21:22:12.323Z,98139.81
2023-03-20T21:24:39.900Z,98137.88
2023-03-20T21:27:11.095Z,98140.94
2023-03-20T21:29:39.281Z,98137.34
2023-03-20T21:32:06.434Z,98143.94
2023-03-20T21:34:33.362Z,98137.34
2023-03-20T21:37:20.620Z,98143.25
2023-03-20T21:39:51.250Z,98145.94
2023-03-20T21:42:18.716Z,98143.47
2023-03-20T21:45:20.674Z,98148.75
2023-03-20T21:51:03.060Z,98150.97
2023-03-20T21:59:25.322Z,98143.88
2023-03-20T22:02:00.198Z,98139.09
2023-03-20T22:05:09.812Z,98143.91
2023-03-20T22:07:38.273Z,98140.84
2023-03-20T22:10:34.515Z,98144.59
2023-03-20T22:13:21.011Z,98149.34
2023-03-20T22:16:03.232Z,98144.97
2023-03-20T22:19:18.456Z,98147.09
2023-03-20T22:21:45.413Z,98147.63
2023-03-20T22:27:35.199Z,98155.09
2023-03-20T22:30:02.579Z,98157.28
2023-03-20T22:35:46.807Z,98153.50
2023-03-20T22:41:36.020Z,98146.53
2023-03-20T22:46:22.680Z,98146.44
2023-03-20T22:48:49.336Z,98138.69
2023-03-20T22:51:16.478Z,98146.06
2023-03-20T22:53:45.119Z,98141.31
2023-03-20T22:56:12.474Z,98143.03
2023-03-20T22:58:39.504Z,98142.59
2023-03-20T23:01:08.134Z,98139.63
2023-03-20T23:03:41.530Z,98147.59
2023-03-20T23:06:21.170Z,98137.50
2023-03-20T23:08:55.231Z,98137.06
2023-03-20T23:11:25.305Z,98127.38
2023-03-20T23:13:52.778Z,98138.91
2023-03-20T23:16:20.000Z,98139.38
2023-03-20T23:18:46.962Z,98131.41
2023-03-20T23:21:13.871Z,98126.72
2023-03-20T23:23:40.913Z,98130.56
2023-03-20T23:26:16.113Z,98132.41
2023-03-20T23:28:45.324Z,98135.47
2023-03-20T23:31:18.125Z,98132.31
2023-03-20T23:33:49.063Z,98133.50
2023-03-20T23:36:32.720Z,98136.91
2023-03-20T23:39:01.696Z,98133.81
2023-03-20T23:41:57.678Z,98137.62
2023-03-20T23:44:15.641Z,98125.72
2023-03-20T23:46:42.556Z,98135.16
2023-03-20T23:49:09.439Z,98129.78
2023-03-20T23:51:36.299Z,98127.00
2023-03-20T23:54:03.274Z,98130.75
2023-03-20T23:56:30.120Z,98129.19
2023-03-20T23:59:05.341Z,98126.09
